createdAt,value
2023-02-23T00:03:09.284Z,61.09
2023-02-23T00:06:40.811Z,61.20
2023-02-23T00:10:12.844Z,61.31
2023-02-23T00:13:41.219Z,61.14
2023-02-23T00:17:15.283Z,61.27
2023-02-23T00:20:49.063Z,61.50
2023-02-23T00:24:19.474Z,61.42
2023-02-23T00:27:49.769Z,61.66
2023-02-23T00:31:17.545Z,61.65
2023-02-23T00:34:45.222Z,61.59
2023-02-23T00:38:14.445Z,61.63
2023-02-23T00:41:44.266Z,61.69
2023-02-23T00:45:13.526Z,61.81
2023-02-23T00:48:42.332Z,61.82
2023-02-23T00:52:11.466Z,61.78
2023-02-23T00:55:42.198Z,61.78
2023-02-23T00:59:10.031Z,61.71
2023-02-23T01:02:37.169Z,62.00
2023-02-23T01:06:06.729Z,62.14
2023-02-23T01:09:35.238Z,62.30
2023-02-23T01:13:06.273Z,62.45
2023-02-23T01:16:39.281Z,62.53
2023-02-23T01:20:15.981Z,62.52
2023-02-23T01:23:43.188Z,62.48
2023-02-23T01:27:10.770Z,62.51
2023-02-23T01:30:38.027Z,62.36
2023-02-23T01:34:06.219Z,62.38
2023-02-23T01:37:35.655Z,62.51
2023-02-23T01:41:04.392Z,62.39
2023-02-23T01:45:15.033Z,62.41
2023-02-23T01:48:43.884Z,62.44
2023-02-23T01:52:14.776Z,62.49
2023-02-23T01:55:43.288Z,62.71
2023-02-23T01:59:13.078Z,62.79
2023-02-23T02:02:42.335Z,62.53
2023-02-23T02:06:14.798Z,62.72
2023-02-23T02:10:03.563Z,62.76
2023-02-23T02:13:33.726Z,62.76
2023-02-23T02:17:13.358Z,62.77
2023-02-23T02:21:16.660Z,62.93
2023-02-23T02:25:18.919Z,63.00
2023-02-23T02:29:29.157Z,63.04
2023-02-23T02:33:27.586Z,63.11
2023-02-23T02:37:39.530Z,63.05
2023-02-23T02:41:12.315Z,62.99
2023-02-23T02:44:53.353Z,63.02
2023-02-23T02:48:34.991Z,63.36
2023-02-23T02:52:13.997Z,63.33
2023-02-23T02:55:44.182Z,63.38
2023-02-23T02:59:36.292Z,63.57
2023-02-23T03:03:21.431Z,63.49
2023-02-23T03:07:12.258Z,63.44
2023-02-23T03:11:05.994Z,63.57
2023-02-23T03:14:53.049Z,63.68
2023-02-23T03:18:57.084Z,63.69
2023-02-23T03:22:48.930Z,63.62
2023-02-23T03:26:40.677Z,63.80
2023-02-23T03:30:34.756Z,64.05
2023-02-23T03:34:28.357Z,64.10
2023-02-23T03:38:19.839Z,63.94
2023-02-23T03:42:05.626Z,63.88
2023-02-23T03:45:52.411Z,63.82
2023-02-23T03:49:40.354Z,63.52
2023-02-23T03:53:27.024Z,63.88
2023-02-23T03:57:14.301Z,63.92
2023-02-23T04:01:04.332Z,63.67
2023-02-23T04:04:49.686Z,63.81
2023-02-23T04:08:37.898Z,63.91
2023-02-23T04:12:28.582Z,63.96
2023-02-23T04:15:57.098Z,63.87
2023-02-23T04:19:23.603Z,64.03
2023-02-23T04:22:50.102Z,64.05
2023-02-23T04:26:16.901Z,63.90
2023-02-23T04:29:44.381Z,64.01
2023-02-23T04:33:11.176Z,63.91
2023-02-23T04:36:37.656Z,63.95
2023-02-23T04:40:04.438Z,64.00
2023-02-23T04:43:31.134Z,63.96
2023-02-23T04:46:57.403Z,64.10
2023-02-23T04:50:24.293Z,64.11
2023-02-23T04:53:50.983Z,64.10
2023-02-23T04:57:17.648Z,64.09
2023-02-23T05:00:44.414Z,64.18
2023-02-23T05:04:11.687Z,64.22
2023-02-23T05:07:39.009Z,64.28
2023-02-23T05:11:07.375Z,64.16
2023-02-23T05:14:34.209Z,64.26
2023-02-23T05:18:00.724Z,64.27
2023-02-23T05:21:27.647Z,64.20
2023-02-23T05:24:57.312Z,64.44
2023-02-23T05:28:24.066Z,64.32
2023-02-23T05:31:51.011Z,64.57
2023-02-23T05:35:18.584Z,64.43
2023-02-23T05:38:45.921Z,64.59
2023-02-23T05:42:17.313Z,64.59
2023-02-23T05:45:45.382Z,64.42
2023-02-23T05:49:13.993Z,64.50
2023-02-23T05:52:42.411Z,64.38
2023-02-23T05:56:13.962Z,64.74
2023-02-23T05:59:40.620Z,64.55
2023-02-23T06:03:07.350Z,64.43
2023-02-23T06:06:34.400Z,64.47
2023-02-23T06:10:01.290Z,64.44
2023-02-23T06:13:29.236Z,64.39
2023-02-23T06:16:56.751Z,64.32
2023-02-23T06:20:23.916Z,64.46
2023-02-23T06:23:50.924Z,64.66
2023-02-23T06:27:17.970Z,64.54
2023-02-23T06:30:45.955Z,64.56
2023-02-23T06:34:12.883Z,64.69
2023-02-23T06:37:39.920Z,64.55
2023-02-23T06:41:12.343Z,64.75
2023-02-23T06:44:39.901Z,64.61
2023-02-23T06:48:07.917Z,64.68
2023-02-23T06:51:35.656Z,64.71
2023-02-23T06:55:02.614Z,64.85
2023-02-23T06:58:29.911Z,64.73
2023-02-23T07:01:56.842Z,64.81
2023-02-23T07:05:23.492Z,64.92
2023-02-23T07:08:50.534Z,64.91
2023-02-23T07:12:17.348Z,64.94
2023-02-23T07:15:44.651Z,64.98
2023-02-23T07:19:11.561Z,65.03
2023-02-23T07:22:40.002Z,65.02
2023-02-23T07:26:07.387Z,65.25
2023-02-23T07:29:34.233Z,65.21
2023-02-23T07:33:03.125Z,65.12
2023-02-23T07:36:29.788Z,64.95
2023-02-23T07:39:56.602Z,65.15
2023-02-23T07:43:24.459Z,65.06
2023-02-23T07:46:53.246Z,64.89
2023-02-23T07:50:21.005Z,64.92
2023-02-23T07:53:48.086Z,64.95
2023-02-23T07:57:14.972Z,64.98
2023-02-23T08:00:41.797Z,64.97
2023-02-23T08:04:09.183Z,65.10
2023-02-23T08:07:36.654Z,65.09
2023-02-23T08:11:05.314Z,65.06
2023-02-23T08:14:32.218Z,65.11
2023-02-23T08:17:59.312Z,65.13
2023-02-23T08:21:25.749Z,65.20
2023-02-23T08:24:52.093Z,65.29
2023-02-23T08:28:20.579Z,65.22
2023-02-23T08:31:48.430Z,65.19
2023-02-23T08:35:16.084Z,65.21
2023-02-23T08:38:42.509Z,65.14
2023-02-23T08:42:10.533Z,65.20
2023-02-23T08:45:38.930Z,65.19
2023-02-23T08:49:09.036Z,65.15
2023-02-23T08:52:36.558Z,65.06
2023-02-23T08:56:18.102Z,65.29
2023-02-23T08:59:49.307Z,65.30
2023-02-23T09:03:20.408Z,65.19
2023-02-23T09:06:50.953Z,65.33
2023-02-23T09:10:25.913Z,65.40
2023-02-23T09:14:01.019Z,65.35
2023-02-23T09:17:30.349Z,65.28
2023-02-23T09:21:00.403Z,65.29
2023-02-23T09:24:28.688Z,65.16
2023-02-23T09:27:59.804Z,65.18
2023-02-23T09:31:27.374Z,65.04
2023-02-23T09:34:54.260Z,65.10
2023-02-23T09:38:20.767Z,65.10
2023-02-23T09:42:18.129Z,64.97
2023-02-23T09:45:49.228Z,65.16
2023-02-23T09:49:20.181Z,65.35
2023-02-23T09:52:50.656Z,64.97
2023-02-23T09:56:22.128Z,65.13
2023-02-23T09:59:48.810Z,65.13
2023-02-23T10:03:26.047Z,65.20
2023-02-23T10:07:00.632Z,65.28
2023-02-23T10:10:37.799Z,65.17
2023-02-23T10:14:21.664Z,64.80
2023-02-23T10:17:53.284Z,64.96
2023-02-23T10:21:26.586Z,64.82
2023-02-23T10:24:57.783Z,64.93
2023-02-23T10:28:25.368Z,65.11
2023-02-23T10:31:58.314Z,64.90
2023-02-23T10:35:26.354Z,64.53
2023-02-23T10:38:53.119Z,64.73
2023-02-23T10:42:24.479Z,64.66
2023-02-23T10:45:52.859Z,64.71
2023-02-23T10:49:23.249Z,64.43
2023-02-23T10:52:53.038Z,64.54
2023-02-23T10:56:21.843Z,64.55
2023-02-23T11:00:03.425Z,64.59
2023-02-23T11:03:37.400Z,64.56
2023-02-23T11:07:18.008Z,64.48
2023-02-23T11:10:56.297Z,64.43
2023-02-23T11:14:28.925Z,64.29
2023-02-23T11:18:00.898Z,64.11
2023-02-23T11:21:33.712Z,64.03
2023-02-23T11:25:01.850Z,64.02
2023-02-23T11:28:33.607Z,63.81
2023-02-23T11:32:09.865Z,63.80
2023-02-23T11:35:37.754Z,63.67
2023-02-23T11:39:23.722Z,63.71
2023-02-23T11:42:57.325Z,63.73
2023-02-23T11:46:25.667Z,63.55
2023-02-23T11:49:53.440Z,63.37
2023-02-23T11:53:30.030Z,63.62
2023-02-23T11:56:58.279Z,63.26
2023-02-23T12:00:30.425Z,63.08
2023-02-23T12:03:59.157Z,63.20
2023-02-23T12:07:39.140Z,62.90
2023-02-23T12:11:12.444Z,62.87
2023-02-23T12:14:49.991Z,62.87
2023-02-23T12:18:27.223Z,62.57
2023-02-23T12:22:03.701Z,62.64
2023-02-23T12:25:36.489Z,62.44
2023-02-23T12:29:07.538Z,62.21
2023-02-23T12:32:45.341Z,62.22
2023-02-23T12:36:26.709Z,62.25
2023-02-23T12:39:58.841Z,62.04
2023-02-23T12:43:31.882Z,62.07
2023-02-23T12:47:04.403Z,61.89
2023-02-23T12:50:34.753Z,62.18
2023-02-23T12:54:03.154Z,61.78
2023-02-23T12:57:39.103Z,61.45
2023-02-23T13:01:13.164Z,61.56
2023-02-23T13:05:06.054Z,61.34
2023-02-23T13:08:50.906Z,61.12
2023-02-23T13:12:33.414Z,61.16
2023-02-23T13:16:05.762Z,61.05
2023-02-23T13:19:39.627Z,60.75
2023-02-23T13:23:16.466Z,60.98
2023-02-23T13:26:50.465Z,60.90
2023-02-23T13:30:18.153Z,60.53
2023-02-23T13:33:44.824Z,60.92
2023-02-23T13:37:13.876Z,60.85
2023-02-23T13:40:46.817Z,60.60
2023-02-23T13:44:23.495Z,60.70
2023-02-23T13:47:55.762Z,60.66
2023-02-23T13:51:31.394Z,60.72
2023-02-23T13:55:04.773Z,60.82
2023-02-23T13:58:34.271Z,60.57
2023-02-23T14:02:17.898Z,60.34
2023-02-23T14:05:48.308Z,60.73
2023-02-23T14:09:24.030Z,60.80
2023-02-23T14:13:08.652Z,60.79
2023-02-23T14:16:36.448Z,60.73
2023-02-23T14:34:23.275Z,60.45
2023-02-23T14:38:01.171Z,60.23
2023-02-23T14:41:31.540Z,60.53
2023-02-23T14:45:04.189Z,60.66
2023-02-23T14:48:31.561Z,60.95
2023-02-23T14:52:06.096Z,61.11
2023-02-23T14:55:35.542Z,60.85
2023-02-23T14:59:02.466Z,61.07
2023-02-23T15:02:33.033Z,61.07
2023-02-23T15:06:02.697Z,61.20
2023-02-23T15:09:36.625Z,61.07
2023-02-23T15:13:11.119Z,61.26
2023-02-23T15:16:38.943Z,61.14
2023-02-23T15:20:16.237Z,61.16
2023-02-23T15:23:46.056Z,61.36
2023-02-23T15:27:23.053Z,61.43
2023-02-23T15:30:53.433Z,61.30
2023-02-23T15:34:22.250Z,61.43
2023-02-23T15:37:59.495Z,61.51
2023-02-23T15:41:42.641Z,61.48
2023-02-23T15:45:21.220Z,61.65
2023-02-23T15:48:53.872Z,61.90
2023-02-23T15:52:26.121Z,61.89
2023-02-23T15:55:56.295Z,61.80
2023-02-23T15:59:29.255Z,61.91
2023-02-23T16:03:00.085Z,62.01
2023-02-23T16:06:36.956Z,61.95
2023-02-23T16:10:21.959Z,62.06
2023-02-23T16:13:53.251Z,62.18
2023-02-23T16:17:30.369Z,62.26
2023-02-23T16:21:02.271Z,62.37
2023-02-23T16:24:31.714Z,62.36
2023-02-23T16:28:02.188Z,62.51
2023-02-23T16:31:44.321Z,62.50
2023-02-23T16:35:25.940Z,62.68
2023-02-23T16:39:01.552Z,62.75
2023-02-23T16:42:32.839Z,62.77
2023-02-23T16:45:59.602Z,62.80
2023-02-23T16:49:26.075Z,62.92
2023-02-23T16:52:56.696Z,63.14
2023-02-23T16:56:25.880Z,63.21
2023-02-23T16:59:54.838Z,63.15
2023-02-23T17:03:25.946Z,63.32
2023-02-23T17:06:58.016Z,63.35
2023-02-23T17:10:27.249Z,63.39
2023-02-23T17:13:54.849Z,63.60
2023-02-23T17:17:23.059Z,63.71
2023-02-23T17:20:50.003Z,63.80
2023-02-23T17:24:18.296Z,63.99
2023-02-23T17:27:44.999Z,64.00
2023-02-23T17:31:14.597Z,64.08
2023-02-23T17:34:41.542Z,64.07
2023-02-23T17:38:09.540Z,64.06
2023-02-23T17:41:35.925Z,64.04
2023-02-23T17:45:04.264Z,64.23
2023-02-23T17:48:34.765Z,64.28
2023-02-23T17:52:03.316Z,64.22
2023-02-23T17:55:30.477Z,64.33
2023-02-23T17:58:58.583Z,64.39
2023-02-23T18:02:27.183Z,64.48
2023-02-23T18:05:55.050Z,64.56
2023-02-23T18:09:21.686Z,64.57
2023-02-23T18:12:48.338Z,64.73
2023-02-23T18:16:23.040Z,64.77
2023-02-23T18:19:53.479Z,64.80
2023-02-23T18:23:23.519Z,64.97
2023-02-23T18:27:02.325Z,64.99
2023-02-23T18:30:31.786Z,65.12
2023-02-23T18:34:01.770Z,65.22
2023-02-23T18:37:33.839Z,65.35
2023-02-23T18:41:07.641Z,65.53
2023-02-23T18:44:41.654Z,65.59
2023-02-23T18:48:13.850Z,65.52
2023-02-23T18:51:45.556Z,65.56
2023-02-23T18:55:18.095Z,65.50
2023-02-23T18:58:49.217Z,65.51
2023-02-23T19:02:19.396Z,65.54
2023-02-23T19:05:54.421Z,65.63
2023-02-23T19:09:27.467Z,65.67
2023-02-23T19:12:58.787Z,65.69
2023-02-23T19:16:30.274Z,65.78
2023-02-23T19:20:00.927Z,65.86
2023-02-23T19:23:28.334Z,65.85
2023-02-23T19:26:56.768Z,65.89
2023-02-23T19:30:24.176Z,66.05
2023-02-23T19:33:51.915Z,66.02
2023-02-23T19:37:19.018Z,66.23
2023-02-23T19:40:47.067Z,66.41
2023-02-23T19:44:13.759Z,66.51
2023-02-23T19:47:41.175Z,66.62
2023-02-23T19:51:11.553Z,66.64
2023-02-23T19:54:39.350Z,66.98
2023-02-23T19:58:07.763Z,66.97
2023-02-23T20:01:35.289Z,67.20
2023-02-23T20:05:03.783Z,67.16
2023-02-23T20:08:30.697Z,67.33
2023-02-23T20:11:58.338Z,67.24
2023-02-23T20:15:25.518Z,67.33
2023-02-23T20:18:54.937Z,67.50
2023-02-23T20:22:22.222Z,67.50
2023-02-23T20:25:49.116Z,67.51
2023-02-23T20:29:19.379Z,67.66
2023-02-23T20:32:48.154Z,67.64
2023-02-23T20:36:16.113Z,67.70
2023-02-23T20:39:44.590Z,67.90
2023-02-23T20:43:12.436Z,67.88
2023-02-23T20:46:44.163Z,68.01
2023-02-23T20:50:13.991Z,68.13
2023-02-23T20:53:42.094Z,68.44
2023-02-23T20:57:09.874Z,68.50
2023-02-23T21:00:40.171Z,68.59
2023-02-23T21:04:07.847Z,68.81
2023-02-23T21:07:36.098Z,68.87
2023-02-23T21:11:08.117Z,69.02
2023-02-23T21:14:36.342Z,68.97
2023-02-23T21:18:03.849Z,69.12
2023-02-23T21:21:31.524Z,69.17
2023-02-23T21:25:02.349Z,69.31
2023-02-23T21:28:31.267Z,69.41
2023-02-23T21:31:58.712Z,69.43
2023-02-23T21:35:26.116Z,69.53
2023-02-23T21:38:54.603Z,69.47
2023-02-23T21:42:25.210Z,69.46
2023-02-23T21:45:51.980Z,69.50
2023-02-23T21:49:20.322Z,69.55
2023-02-23T21:52:49.123Z,69.66
2023-02-23T21:56:18.782Z,69.77
2023-02-23T21:59:46.976Z,69.76
2023-02-23T22:03:16.443Z,69.89
2023-02-23T22:06:46.092Z,69.89
2023-02-23T22:10:13.581Z,70.16
2023-02-23T22:13:43.713Z,70.18
2023-02-23T22:17:11.602Z,70.28
2023-02-23T22:20:39.589Z,70.43
2023-02-23T22:24:08.562Z,70.72
2023-02-23T22:27:36.077Z,70.60
2023-02-23T22:31:08.534Z,70.72
2023-02-23T22:34:35.521Z,70.57
2023-02-23T22:38:13.056Z,70.73
2023-02-23T22:41:42.603Z,70.76
2023-02-23T22:45:12.686Z,70.79
2023-02-23T22:48:44.074Z,70.93
2023-02-23T22:52:13.135Z,71.06
2023-02-23T22:55:42.708Z,71.02
2023-02-23T22:59:19.583Z,70.90
2023-02-23T23:02:47.469Z,71.03
2023-02-23T23:06:18.011Z,71.02
2023-02-23T23:09:45.223Z,71.09
2023-02-23T23:13:12.592Z,71.13
2023-02-23T23:16:48.395Z,71.06
2023-02-23T23:20:23.416Z,71.19
2023-02-23T23:23:51.851Z,71.41
2023-02-23T23:27:20.398Z,71.51
2023-02-23T23:30:52.498Z,71.55
2023-02-23T23:34:21.930Z,71.78
2023-02-23T23:37:49.849Z,71.91
2023-02-23T23:41:17.398Z,71.96
2023-02-23T23:44:45.763Z,71.95
2023-02-23T23:48:14.357Z,71.99
2023-02-23T23:51:45.044Z,72.06
2023-02-23T23:55:15.109Z,72.12
2023-02-23T23:58:42.606Z,72.04
